Kuala Lumpur, Malaysia
Current Conditions -  °F | °C
As of 7:00 AM on Thursday 27 Nov 2014 (Local Time) from WMSA Reporting Station
Broken Clouds Broken Clouds  
Wind Chill: 75°   Ceiling: 28000
Heat Index: 75°   Visibility: 5mi
Dew Point: 73°   Wind: 2mph
Humidity: 94%   Direction: 10°N
Pressure: 29.77"   Gusts: NA
Location:  3.16°N, 101.71°E
Report Text: WMSA 262300Z 01002KT 8000 FEW017CB BKN280 24/23 Q1008
Loading
Personal Weather Stations






























Interactive Weather Map New forecast layout! Learn more

10-Day Weather Forecast

Advertisements
Track Severe Weather on mobile